Terminal Aerodrome Forecast
Issued by NWS

Current Version | Previous Version | Text Only | Print | Product List | Glossary On
Versions: 1 2 3 4 5 6 7 8 9 10 11 12 13 14 15 16
000
FTUS45 KRIW 161723
TAFBPI
TAF
KBPI 161723Z 1618/1718 VRB06KT 3SM -SN OVC025
     FM161900 01008KT 5SM -SN OVC015
     FM170900 34007KT P6SM VCFG SCT003 SCT040
     FM171700 33010KT P6SM SCT080=

USA.gov is the U.S. government's official web portal to all federal, state and local government web resources and services.